Wednesday, June 20, 2018, 2:55 PM GMT
Back to Local

CYPD, Port Hawkesbury

Location: , , Canada Lat: 45.667
Local Time: 2:55 PM GMT (14:55 GMT) Lon: -61.383
Time Zone: GMT Elev: 374 ft

Show me the last for .
Show Decoded

2018-06-20 14:00 METAR CYPD 201400Z AUTO 29011G16KT 9SM CLR 16/08 A2971 RMK SLP064 DENSITY ALT
                 700FT =
2018-06-20 13:00 METAR CYPD 201300Z AUTO 30013G18KT 260V340 9SM CLR 14/08 A2970 RMK SLP061
                 DENSITY ALT 600FT =
2018-06-20 12:00 METAR CYPD 201200Z AUTO 30009G15KT 9SM CLR 14/09 A2970 RMK SLP061 DENSITY ALT
                 500FT =
2018-06-20 11:00 METAR CYPD 201100Z AUTO 30010G16KT 9SM CLR 13/09 A2969 RMK SLP056 DENSITY ALT
                 400FT =
2018-06-20 10:00 METAR CYPD 201000Z AUTO 30009KT 9SM CLR 12/09 A2968 RMK SLP055 =
2018-06-20 09:00 METAR CYPD 200900Z AUTO 29009G15KT 9SM SCT049 12/08 A2965 RMK SLP044 =
2018-06-20 08:00 METAR CYPD 200800Z AUTO 29010G15KT 9SM OVC049 12/08 A2964 RMK SLP041 DENSITY ALT
                 400FT =
2018-06-20 07:00 METAR CYPD 200700Z AUTO 30013KT 9SM OVC049 12/08 A2963 RMK SLP038 DENSITY ALT
                 400FT =
2018-06-20 06:00 METAR CYPD 200600Z AUTO 30006KT 9SM BKN043 OVC060 11/08 A2964 RMK SLP039 =
2018-06-20 05:00 METAR CYPD 200500Z AUTO 30011G17KT 9SM OVC055 11/08 A2962 RMK SLP034 =
2018-06-20 04:00 METAR CYPD 200400Z AUTO 30007KT 9SM OVC055 11/08 A2961 RMK SLP029 =
2018-06-20 03:00 METAR CYPD 200300Z AUTO 32007KT 290V010 9SM BKN040 OVC055 11/08 A2961 RMK SLP028
                 =
2018-06-20 02:54 METAR CYPD 200254Z AUTO 32008KT 9SM BKN040 OVC055 11/08 A2961 RMK SLP028 =
2018-06-20 02:41 METAR CYPD 200241Z AUTO 31006KT 270V330 9SM -RA BKN040 OVC055 12/08 A2960 RMK
                 SLP027 DENSITY ALT 400FT =
2018-06-20 02:00 METAR CYPD 200200Z AUTO 29009KT 9SM OVC060 11/09 A2959 RMK SLP024 =
2018-06-20 01:00 METAR CYPD 200100Z AUTO 29005KT 9SM OVC065 11/09 A2959 RMK SLP022 =
2018-06-20 00:00 METAR CYPD 200000Z AUTO 31006KT 9SM OVC060 12/09 A2956 RMK SLP014 DENSITY ALT
                 500FT =
2018-06-19 23:00 METAR CYPD 192300Z AUTO 31011G17KT 9SM BKN060 12/09 A2955 RMK SLP008 DENSITY ALT
                 500FT =
2018-06-19 22:00 METAR CYPD 192200Z AUTO 30007KT 9SM BKN060 12/10 A2953 RMK SLP002 DENSITY ALT
                 500FT =
2018-06-19 21:00 METAR CYPD 192100Z AUTO 31009KT 280V350 9SM OVC041 13/11 A2951 RMK SLP995
                 DENSITY ALT 700FT =
2018-06-19 20:00 METAR CYPD 192000Z AUTO 31008G16KT 280V350 9SM OVC043 13/11 A2950 RMK SLP993
                 DENSITY ALT 600FT =
2018-06-19 19:00 METAR CYPD 191900Z AUTO 31012G19KT 9SM SCT013 SCT022 OVC029 14/12 A2947 RMK
                 SLP983 DENSITY ALT 800FT =
2018-06-19 18:32 METAR CYPD 191832Z AUTO 31012G18KT 9SM FEW004 SCT008 BKN013 OVC020 13/13 A2947
                 RMK SLP981 DENSITY ALT 700FT =
2018-06-19 18:19 METAR CYPD 191819Z AUTO 32010G16KT 290V350 6SM BR BKN004 BKN007 OVC013 13/13
                 A2946 RMK SLP980 DENSITY ALT 700FT =
2018-06-19 18:00 METAR CYPD 191800Z AUTO 31011G18KT 3SM BR OVC002 13/13 A2946 RMK SLP980 DENSITY
                 ALT 700FT =
2018-06-19 17:59 METAR CYPD 191759Z AUTO 31011G18KT 3SM BR OVC002 13/13 A2946 RMK SLP980 DENSITY
                 ALT 700FT =
2018-06-19 17:20 METAR CYPD 191720Z AUTO 30013G18KT 0SM FG VV002 13/13 A2945 RMK SLP974 DENSITY
                 ALT 700FT =
2018-06-19 17:00 METAR CYPD 191700Z AUTO 29012G21KT 1/8SM -RA FG VV002 13/13 A2944 RMK SLP971
                 DENSITY ALT 700FT =
2018-06-19 16:34 METAR CYPD 191634Z AUTO 30012G17KT 270V330 2 1/2SM -RA BR OVC002 13/13 A2943 RMK
                 SLP970 DENSITY ALT 700FT =
2018-06-19 16:28 METAR CYPD 191628Z AUTO 30008G17KT 280V340 3SM -RA BR OVC002 13/13 A2943 RMK
                 SLP970 DENSITY ALT 700FT =
2018-06-19 16:19 METAR CYPD 191619Z AUTO 29011G16KT 1 3/4SM -RA BR OVC002 13/13 A2943 RMK SLP967
                 DENSITY ALT 700FT =
2018-06-19 16:00 METAR CYPD 191600Z AUTO 30010G15KT 3/4SM BR VV002 13/13 A2941 RMK SLP963 DENSITY
                 ALT 700FT =
2018-06-19 15:12 METAR CYPD 191512Z AUTO 29009G16KT 0SM FG VV002 13/13 A2940 RMK SLP958 DENSITY
                 ALT 800FT =
2018-06-19 15:00 METAR CYPD 191500Z AUTO 30014G21KT 1/8SM -RA FG VV002 14/13 A2940 RMK SLP957
                 DENSITY ALT 800FT =

Support USWX by starting your Amazon purchase here.